Latest Coastal Weather Observations for Karratha

IDW60701

Issued at 10:03 pm WST Wednesday 18 January 2017 (issued every 10 minutes, with the page automatically refreshed every 10 minutes)

About coastal observations | Map of coastal stations | Coastal observations for WA | Marine services | Other Formats
Station Details ID: 004083 Name: KARRATHA AERO Lat: -20.71 Lon: 116.77 Height: 5.3 m
Data from the previous 72 hours. | See also: Recent months at Karratha
Date/Time
WST
Temp
°C
Wind Pressure Rain since
9am
mm
Weather Cloud Vis
km
Sea
Height
m
Swell
Dir  Spd
kts
Gust
kts
hPa Trend Height
m
Period
s
Dir
18/09:30pm 28.1 WSW 20 24 1006.2 - 0.0 - - 10 - - - -
18/09:00pm 28.2 W 19 23 1006.4 - 0.0 - - 10 - - - -
18/08:30pm 28.2 W 17 23 1006.4 - 0.0 - - 10 - - - -
18/08:00pm 28.3 W 18 23 1006.3 - 0.0 - - 10 - - - -
18/07:30pm 28.4 W 21 24 1005.6 - 0.0 - - 10 - - - -
18/07:00pm 28.7 W 20 23 1005.3 - 0.0 - - 10 - - - -
18/06:30pm 29.0 W 21 25 1004.8 - 0.0 - - 10 - - - -
18/06:00pm 29.3 W 19 23 1004.2 - 0.0 - - 10 - - - -
18/05:30pm 29.7 W 21 26 1003.7 - 0.0 - - 10 - - - -
18/05:00pm 30.0 W 20 25 1003.7 - 0.0 - - 10 - - - -
18/04:30pm 30.4 WNW 18 25 1003.6 - 0.0 - - 10 - - - -
18/04:00pm 29.9 WNW 19 23 1003.6 - 0.0 - Partly cloudy 10 - - - -
18/03:30pm 30.2 WNW 19 24 1003.8 - 0.0 - - 10 - - - -
18/03:00pm 30.1 WNW 19 24 1004.1 - 0.0 - - 10 - - - -
18/02:30pm 30.3 WNW 18 22 1004.5 - 0.0 - - 10 - - - -
18/02:00pm 30.1 WNW 17 23 1004.7 - 0.0 - - 10 - - - -
18/01:30pm 31.3 WNW 16 21 1005.1 - 0.0 - - 10 - - - -
18/01:00pm 31.1 WNW 16 20 1005.4 - 0.0 - - 10 - - - -
18/12:30pm 31.2 WNW 15 19 1005.7 - 0.0 - - 10 - - - -
18/12:00pm 31.2 WNW 14 18 1006.0 - 0.0 - - 10 - - - -
18/11:30am 31.1 WNW 14 18 1006.1 - 0.0 - - 10 - - - -
18/11:00am 31.5 WNW 13 16 1006.3 - 0.0 - - 10 - - - -
18/10:30am 31.0 W 12 15 1006.3 - 0.0 - - 10 - - - -
18/10:00am 30.5 W 12 15 1006.7 - 0.0 - - 10 - - - -
18/09:30am 30.6 W 12 15 1006.8 - 0.0 - - 10 - - - -
18/09:00am 29.8 W 11 14 1006.9 - 0.0 - Mostly clear 10 - - - -
18/08:30am 29.6 W 12 15 1006.7 - 0.0 - Partly cloudy 10 - - - -
18/08:00am 28.6 WNW 12 16 1006.7 - 0.0 - Partly cloudy 10 - - - -
18/07:30am 28.4 W 11 15 1006.7 - 0.0 - Partly cloudy 10 - - - -
18/07:00am 27.9 WNW 10 12 1006.5 - 0.0 - Partly cloudy 9 - - - -
18/06:30am 27.5 WNW 9 12 1006.3 - 0.0 - Partly cloudy 9 - - - -
18/06:00am 27.4 WNW 8 11 1006.2 - 0.0 - Partly cloudy 9 - - - -
18/05:30am 27.2 WNW 9 12 1005.9 - 0.0 - Partly cloudy 9 - - - -
18/05:00am 27.3 WNW 10 12 1005.7 - 0.0 - Partly cloudy 10 - - - -
18/04:30am 27.4 W 11 14 1005.7 - 0.0 - Partly cloudy 9 - - - -
18/04:00am 27.3 WNW 11 13 1005.6 - 0.0 - Partly cloudy 10 - - - -
18/03:30am 27.3 WNW 9 12 1005.5 - 0.0 - Partly cloudy 10 - - - -
18/03:00am 27.5 W 11 14 1005.5 - 0.0 - Partly cloudy 10 - - - -
18/02:30am 27.7 W 11 14 1005.6 - 0.0 - - 10 - - - -
18/02:00am 27.6 WNW 11 14 1005.6 - 0.0 - - 10 - - - -
18/01:30am 27.5 WNW 11 15 1005.8 - 0.0 - Partly cloudy 10 - - - -
18/01:00am 27.9 W 13 16 1006.1 - 0.0 - Partly cloudy 10 - - - -
18/12:30am 27.8 W 13 17 1006.2 - 0.0 - Partly cloudy 10 - - - -
18/12:00am 27.9 W 14 16 1006.5 - 0.0 - Partly cloudy 10 - - - -
 
Date/Time
WST
Temp
°C
Wind Pressure Rain since
9am
mm
Weather Cloud Vis
km
Sea
Height
m
Swell
Dir  Spd
kts
Gust
kts
hPa Trend Height
m
Period
s
Dir
17/11:30pm 27.9 W 14 18 1006.8 - 0.0 - Partly cloudy 10 - - - -
17/11:00pm 27.9 W 15 17 1006.8 - 0.0 - Partly cloudy 10 - - - -
17/10:30pm 28.0 WNW 14 18 1006.8 - 0.0 - Partly cloudy 10 - - - -
17/10:00pm 28.3 W 15 18 1006.9 - 0.0 - Partly cloudy 10 - - - -
17/09:30pm 28.3 WNW 13 17 1006.7 - 0.0 - Partly cloudy 10 - - - -
17/09:00pm 28.2 WNW 13 16 1006.2 - 0.0 - Partly cloudy 10 - - - -
17/08:30pm 28.1 WNW 14 17 1006.0 - 0.0 - Partly cloudy 10 - - - -
17/08:00pm 28.3 WNW 13 17 1005.7 - 0.0 - Partly cloudy 10 - - - -
17/07:30pm 28.4 WNW 14 18 1005.3 - 0.0 - - 10 - - - -
17/07:00pm 28.8 WNW 13 17 1004.7 - 0.0 - Partly cloudy 10 - - - -
17/06:30pm 29.2 WNW 15 19 1004.4 - 0.0 - - 10 - - - -
17/06:00pm 29.8 WNW 15 18 1004.0 - 0.0 - - 10 - - - -
17/05:30pm 30.1 WNW 14 18 1003.7 - 0.0 - - 10 - - - -
17/05:00pm 30.7 WNW 15 19 1003.6 - 0.0 - - 10 - - - -
17/04:30pm 31.3 NW 15 18 1003.5 - 0.0 - - 10 - - - -
17/04:00pm 31.5 WNW 14 19 1003.6 - 0.0 - - 10 - - - -
17/03:30pm 31.8 WNW 14 18 1003.8 - 0.0 - - 10 - - - -
17/03:00pm 32.2 WNW 14 18 1004.1 - 0.0 - - 10 - - - -
17/02:30pm 32.6 WNW 11 16 1004.5 - 0.0 - - 10 - - - -
17/02:00pm 32.3 NW 12 16 1004.8 - 0.0 - - 10 - - - -
17/01:30pm 32.3 NW 11 15 1005.1 - 0.0 - - 10 - - - -
17/01:00pm 32.7 WNW 11 15 1005.2 - 0.0 - - 10 - - - -
17/12:30pm 31.9 WNW 12 15 1005.4 - 0.0 - - 10 - - - -
17/12:00pm 32.2 W 11 15 1005.5 - 0.0 - Mostly clear 10 - - - -
17/11:30am 31.1 WNW 10 13 1005.8 - 0.0 - Partly cloudy 10 - - - -
17/11:00am 30.8 W 9 12 1006.0 - 0.0 - Partly cloudy 10 - - - -
17/10:30am 30.7 WNW 9 11 1006.2 - 0.0 - - 10 - - - -
17/10:00am 30.3 WNW 9 11 1006.2 - 0.0 - Partly cloudy 10 - - - -
17/09:30am 29.7 WNW 7 10 1006.2 - 0.0 - Partly cloudy 10 - - - -
17/09:00am 29.2 W 6 9 1006.2 - 0.0 - Mostly clear 10 - - - -
17/08:30am 29.0 W 6 9 1006.3 - 0.0 - - 10 - - - -
17/08:00am 28.4 WSW 5 7 1006.4 - 0.0 - - 10 - - - -
17/07:30am 27.9 WSW 4 6 1006.5 - 0.0 - - 10 - - - -
17/07:00am 27.7 W 7 8 1006.5 - 0.0 - - 10 - - - -
17/06:30am 27.1 WNW 7 8 1006.3 - 0.0 - Partly cloudy 10 - - - -
17/06:00am 27.0 WNW 6 8 1006.1 - 0.0 - Partly cloudy 10 - - - -
17/05:30am 27.1 WNW 7 8 1005.7 - 0.0 - Cloudy 10 - - - -
17/05:00am 27.1 NW 6 8 1005.3 - 0.0 - Partly cloudy 10 - - - -
17/04:30am 27.0 WNW 7 8 1004.9 - 0.0 - Partly cloudy 10 - - - -
17/04:00am 27.0 WNW 7 9 1004.8 - 0.0 - Partly cloudy 10 - - - -
17/03:30am 27.1 WNW 7 11 1004.7 - 0.0 - Partly cloudy 10 - - - -
17/03:00am 27.2 WNW 7 10 1004.7 - 0.0 - Mostly clear 10 - - - -
17/02:30am 27.2 WNW 9 11 1004.8 - 0.0 - Partly cloudy 10 - - - -
17/02:00am 27.4 WNW 9 11 1004.9 - 0.0 - Partly cloudy 10 - - - -
17/01:30am 27.4 WNW 9 12 1004.9 - 0.0 - Partly cloudy 10 - - - -
17/01:00am 27.6 WNW 10 12 1005.1 - 0.0 - Partly cloudy 10 - - - -
17/12:30am 27.6 WNW 9 11 1005.5 - 0.0 - Partly cloudy 10 - - - -
17/12:00am 27.7 WNW 9 12 1005.8 - 0.0 - Mostly clear 10 - - - -
 
Date/Time
WST
Temp
°C
Wind Pressure Rain since
9am
mm
Weather Cloud Vis
km
Sea
Height
m
Swell
Dir  Spd
kts
Gust
kts
hPa Trend Height
m
Period
s
Dir
16/11:30pm 27.9 WNW 9 12 1006.2 - 0.0 - Partly cloudy 10 - - - -
16/11:00pm 28.1 WNW 8 11 1006.5 - 0.0 - Partly cloudy 10 - - - -
16/10:30pm 28.2 WNW 9 11 1006.6 - 0.0 - Partly cloudy 10 - - - -
16/10:00pm 28.3 W 9 11 1006.6 - 0.0 - Partly cloudy 10 - - - -
16/09:30pm 28.3 W 10 13 1006.1 - 0.0 - Partly cloudy 10 - - - -
16/09:00pm 28.3 W 11 14 1006.0 - 0.0 - Partly cloudy 10 - - - -
16/08:30pm 28.5 W 11 13 1005.5 - 0.0 - Partly cloudy 10 - - - -
16/08:00pm 28.8 W 11 13 1005.2 - 0.0 - Partly cloudy 10 - - - -
16/07:30pm 28.7 WNW 11 13 1004.8 - 0.0 - Partly cloudy 10 - - - -
16/07:00pm 29.1 W 11 13 1004.3 - 0.0 - Partly cloudy 10 - - - -
16/06:30pm 29.6 WNW 10 13 1004.1 - 0.0 - Partly cloudy 10 - - - -
16/06:00pm 30.1 WNW 11 14 1003.8 - 0.0 - Mostly clear 10 - - - -
16/05:30pm 30.3 WNW 13 16 1003.5 - 0.0 - Partly cloudy 10 - - - -
16/05:00pm 31.0 NW 12 16 1003.7 - 0.0 - - 10 - - - -
16/04:30pm 31.5 NW 12 16 1003.6 - 0.0 - Partly cloudy 10 - - - -
16/04:00pm 30.8 NW 12 16 1003.7 - 0.0 - - 10 - - - -
16/03:30pm 32.0 NNW 10 13 1004.0 - 0.0 - - 10 - - - -
16/03:00pm 31.8 NNW 10 14 1004.0 - 0.0 - - 10 - - - -
16/02:30pm 32.0 NNW 10 13 1004.4 - 0.0 - Partly cloudy 10 - - - -
16/02:00pm 31.8 NW 9 13 1004.6 - 0.0 - Partly cloudy 10 - - - -
16/01:30pm 31.4 NNW 9 11 1004.8 - 0.0 - Partly cloudy 10 - - - -
16/01:00pm 32.0 NNW 8 11 1004.9 - 0.0 - Partly cloudy 10 - - - -
16/12:30pm 31.2 NW 9 12 1005.1 - 0.0 - Partly cloudy 10 - - - -
16/12:00pm 30.5 WNW 8 11 1005.4 - 0.0 - Cloudy 10 - - - -
16/11:30am 30.0 W 6 8 1005.7 - 0.0 - Partly cloudy 10 - - - -
16/11:00am 30.5 WNW 5 8 1006.0 - 0.0 - Partly cloudy 10 - - - -
16/10:30am 30.3 WNW 6 9 1006.2 - 0.0 - Partly cloudy 10 - - - -
16/10:00am 30.2 W 4 6 1006.4 - 0.0 - Partly cloudy 10 - - - -
16/09:30am 29.1 W 4 6 1006.4 - 0.0 - Partly cloudy 10 - - - -
16/09:00am 29.0 WSW 5 7 1006.5 - 0.0 - Cloudy 10 - - - -
16/08:30am 28.5 WSW 6 7 1006.5 - 0.0 - Partly cloudy 10 - - - -
16/08:00am 28.2 SW 5 7 1006.5 - 0.0 - Partly cloudy 10 - - - -
16/07:30am 27.8 SW 6 8 1006.3 - 0.0 - Partly cloudy 10 - - - -
16/07:00am 27.2 SSW 6 7 1006.3 - 0.0 - Partly cloudy 10 - - - -
16/06:30am 26.8 SSW 5 6 1006.0 - 0.0 - Partly cloudy 10 - - - -
16/06:00am 26.3 S 4 5 1005.8 - 0.0 - Cloudy 10 - - - -
16/05:30am 26.2 SSW 6 7 1005.4 - 0.0 - Partly cloudy 10 - - - -
16/05:00am 26.2 SSW 4 5 1005.3 - 0.0 - Partly cloudy 10 - - - -
16/04:30am 26.2 SW 4 5 1005.0 - 0.0 - - 10 - - - -
16/04:00am 26.2 SW 6 8 1004.8 - 0.0 - Partly cloudy 10 - - - -
16/03:30am 26.4 SSW 5 7 1004.8 - 0.0 - Partly cloudy 10 - - - -
16/03:00am 26.5 SW 7 9 1005.0 - 0.0 - Cloudy 10 - - - -
16/02:44am 26.5 SSW 7 8 1005.1 - 0.0 - Partly cloudy 10 - - - -
16/02:30am 26.6 SW 8 9 1005.2 - 0.0 - Partly cloudy 10 - - - -
16/02:00am 26.9 SW 7 8 1005.3 - 0.0 - Partly cloudy 10 - - - -
16/01:57am 27.1 SW 6 8 1005.3 - 0.0 - Partly cloudy 10 - - - -
16/01:30am 27.3 W 7 8 1005.4 - 0.0 - Partly cloudy 10 - - - -
16/01:00am 27.4 WNW 8 11 1005.7 - 0.0 - Partly cloudy 10 - - - -
16/12:30am 28.1 NNE 5 8 1005.8 - 0.0 - Partly cloudy 10 - - - -
16/12:00am 28.1 N 6 8 1006.1 - 0.0 - Mostly cloudy 10 - - - -
 
Date/Time
WST
Temp
°C
Wind Pressure Rain since
9am
mm
Weather Cloud Vis
km
Sea
Height
m
Swell
Dir  Spd
kts
Gust
kts
hPa Trend Height
m
Period
s
Dir
15/11:30pm 28.2 NNE 6 8 1006.2 - 0.0 - Partly cloudy 10 - - - -
15/11:00pm 28.2 NNE 6 7 1006.6 - 0.0 - Partly cloudy 10 - - - -
15/10:30pm 28.0 N 1 6 1006.6 - 0.0 - Partly cloudy 10 - - - -

Other Formats:

Comma delimited format used in spreadsheet applications
http://www.bom.gov.au/fwo/IDW60701/IDW60701.95307.axf

JavaScript Object Notation format (JSON) in row-major order
http://www.bom.gov.au/fwo/IDW60701/IDW60701.95307.json